sensor_id;sensor_type;location;lat;lon;timestamp;pressure;altitude;pressure_sealevel;temperature;humidity
48364;BME280;34170;54.364;18.582;2023-02-22T00:02:01;100313.06;;;3.51;83.25
48364;BME280;34170;54.364;18.582;2023-02-22T00:04:40;100318.53;;;3.62;83.79
48364;BME280;34170;54.364;18.582;2023-02-22T00:07:07;100329.78;;;3.53;82.10
48364;BME280;34170;54.364;18.582;2023-02-22T00:09:35;100310.41;;;3.10;80.84
48364;BME280;34170;54.364;18.582;2023-02-22T00:12:02;100316.56;;;3.52;80.44
48364;BME280;34170;54.364;18.582;2023-02-22T00:14:30;100319.63;;;3.73;79.43
48364;BME280;34170;54.364;18.582;2023-02-22T00:16:57;100321.59;;;3.56;76.87
48364;BME280;34170;54.364;18.582;2023-02-22T00:19:27;100316.97;;;3.46;78.06
48364;BME280;34170;54.364;18.582;2023-02-22T00:21:57;100325.44;;;3.38;76.71
48364;BME280;34170;54.364;18.582;2023-02-22T00:24:25;100323.41;;;3.41;76.66
48364;BME280;34170;54.364;18.582;2023-02-22T00:26:53;100330.75;;;3.38;76.80
48364;BME280;34170;54.364;18.582;2023-02-22T00:29:23;100328.97;;;3.66;76.22
48364;BME280;34170;54.364;18.582;2023-02-22T00:31:51;100332.78;;;3.61;75.36
48364;BME280;34170;54.364;18.582;2023-02-22T00:34:18;100333.19;;;3.55;74.93
48364;BME280;34170;54.364;18.582;2023-02-22T00:36:47;100323.13;;;3.46;73.44
48364;BME280;34170;54.364;18.582;2023-02-22T00:39:15;100339.84;;;3.75;73.71
48364;BME280;34170;54.364;18.582;2023-02-22T00:41:43;100333.69;;;3.75;74.06
48364;BME280;34170;54.364;18.582;2023-02-22T00:44:10;100339.63;;;3.66;73.59
48364;BME280;34170;54.364;18.582;2023-02-22T00:46:38;100338.53;;;3.68;72.95
48364;BME280;34170;54.364;18.582;2023-02-22T00:49:06;100340.25;;;3.69;73.28
48364;BME280;34170;54.364;18.582;2023-02-22T00:51:33;100333.63;;;3.62;74.71
48364;BME280;34170;54.364;18.582;2023-02-22T00:54:02;100338.75;;;3.23;73.96
48364;BME280;34170;54.364;18.582;2023-02-22T00:56:31;100335.31;;;3.36;74.08
48364;BME280;34170;54.364;18.582;2023-02-22T00:58:59;100338.28;;;3.31;74.11
48364;BME280;34170;54.364;18.582;2023-02-22T01:01:29;100345.19;;;3.34;74.78
48364;BME280;34170;54.364;18.582;2023-02-22T01:03:57;100345.28;;;3.32;74.11
48364;BME280;34170;54.364;18.582;2023-02-22T01:06:25;100343.59;;;3.31;74.30
48364;BME280;34170;54.364;18.582;2023-02-22T01:08:52;100353.91;;;3.36;73.12
48364;BME280;34170;54.364;18.582;2023-02-22T01:11:20;100341.53;;;3.22;74.05
48364;BME280;34170;54.364;18.582;2023-02-22T01:13:48;100352.78;;;3.40;73.83
48364;BME280;34170;54.364;18.582;2023-02-22T01:16:15;100358.84;;;3.56;73.16
48364;BME280;34170;54.364;18.582;2023-02-22T01:18:43;100353.78;;;3.52;73.17
48364;BME280;34170;54.364;18.582;2023-02-22T01:21:10;100356.91;;;3.58;73.25
48364;BME280;34170;54.364;18.582;2023-02-22T01:23:43;100359.38;;;3.61;74.47
48364;BME280;34170;54.364;18.582;2023-02-22T01:26:11;100365.78;;;3.72;74.09
48364;BME280;34170;54.364;18.582;2023-02-22T01:28:39;100366.69;;;3.72;74.35
48364;BME280;34170;54.364;18.582;2023-02-22T01:31:06;100367.00;;;3.80;73.86
48364;BME280;34170;54.364;18.582;2023-02-22T01:33:33;100377.56;;;3.82;73.85
48364;BME280;34170;54.364;18.582;2023-02-22T01:36:01;100379.47;;;3.80;74.38
48364;BME280;34170;54.364;18.582;2023-02-22T01:38:29;100383.63;;;3.84;75.08
48364;BME280;34170;54.364;18.582;2023-02-22T01:40:57;100385.84;;;3.77;75.53
48364;BME280;34170;54.364;18.582;2023-02-22T01:43:31;100373.97;;;3.83;76.03
48364;BME280;34170;54.364;18.582;2023-02-22T01:46:15;100381.84;;;3.85;74.59
48364;BME280;34170;54.364;18.582;2023-02-22T01:48:54;100387.44;;;3.80;74.83
48364;BME280;34170;54.364;18.582;2023-02-22T01:51:30;100382.63;;;3.72;75.44
48364;BME280;34170;54.364;18.582;2023-02-22T01:54:22;100385.38;;;3.71;76.07
48364;BME280;34170;54.364;18.582;2023-02-22T01:57:16;100385.19;;;3.74;76.22
48364;BME280;34170;54.364;18.582;2023-02-22T01:59:48;100387.97;;;3.72;76.54
48364;BME280;34170;54.364;18.582;2023-02-22T02:02:17;100381.75;;;3.72;76.50
48364;BME280;34170;54.364;18.582;2023-02-22T02:04:48;100382.91;;;3.68;77.01
48364;BME280;34170;54.364;18.582;2023-02-22T02:07:17;100381.69;;;3.59;77.60
48364;BME280;34170;54.364;18.582;2023-02-22T02:09:57;100373.91;;;3.70;77.54
48364;BME280;34170;54.364;18.582;2023-02-22T02:12:26;100372.19;;;3.69;77.49
48364;BME280;34170;54.364;18.582;2023-02-22T02:15:16;100380.34;;;3.66;76.65
48364;BME280;34170;54.364;18.582;2023-02-22T02:17:44;100383.31;;;3.61;75.67
48364;BME280;34170;54.364;18.582;2023-02-22T02:20:17;100381.56;;;3.75;76.56
48364;BME280;34170;54.364;18.582;2023-02-22T02:22:55;100385.63;;;3.80;75.83
48364;BME280;34170;54.364;18.582;2023-02-22T02:36:03;100375.34;;;3.61;77.79
48364;BME280;34170;54.364;18.582;2023-02-22T02:38:47;100382.34;;;3.62;77.54
48364;BME280;34170;54.364;18.582;2023-02-22T02:41:32;100380.03;;;3.43;76.13
48364;BME280;34170;54.364;18.582;2023-02-22T02:46:36;100376.06;;;3.78;76.54
48364;BME280;34170;54.364;18.582;2023-02-22T02:49:10;100373.97;;;3.83;77.10
48364;BME280;34170;54.364;18.582;2023-02-22T02:51:43;100363.50;;;3.80;76.83
48364;BME280;34170;54.364;18.582;2023-02-22T02:54:14;100370.31;;;3.84;76.88
48364;BME280;34170;54.364;18.582;2023-02-22T02:56:42;100374.81;;;3.84;76.66
48364;BME280;34170;54.364;18.582;2023-02-22T02:59:42;100373.72;;;3.86;75.30
48364;BME280;34170;54.364;18.582;2023-02-22T03:02:43;100382.19;;;3.93;75.45
48364;BME280;34170;54.364;18.582;2023-02-22T03:08:14;100379.28;;;3.83;75.78
48364;BME280;34170;54.364;18.582;2023-02-22T03:11:05;100388.75;;;3.87;76.29
48364;BME280;34170;54.364;18.582;2023-02-22T03:13:55;100397.69;;;3.86;76.35
48364;BME280;34170;54.364;18.582;2023-02-22T03:16:56;100391.50;;;3.86;76.81
48364;BME280;34170;54.364;18.582;2023-02-22T03:19:34;100393.63;;;3.80;76.34
48364;BME280;34170;54.364;18.582;2023-02-22T03:22:13;100399.81;;;3.81;76.75
48364;BME280;34170;54.364;18.582;2023-02-22T03:25:13;100405.69;;;3.72;77.61
48364;BME280;34170;54.364;18.582;2023-02-22T03:27:47;100403.44;;;3.66;78.74
48364;BME280;34170;54.364;18.582;2023-02-22T03:30:24;100417.50;;;3.68;78.87
48364;BME280;34170;54.364;18.582;2023-02-22T03:33:04;100421.31;;;3.63;79.10
48364;BME280;34170;54.364;18.582;2023-02-22T03:35:42;100404.78;;;3.58;79.09
48364;BME280;34170;54.364;18.582;2023-02-22T03:38:15;100413.25;;;3.65;79.48
48364;BME280;34170;54.364;18.582;2023-02-22T03:40:45;100421.31;;;3.63;79.40
48364;BME280;34170;54.364;18.582;2023-02-22T03:43:20;100411.03;;;3.57;79.58
48364;BME280;34170;54.364;18.582;2023-02-22T03:45:55;100414.84;;;3.53;79.91
48364;BME280;34170;54.364;18.582;2023-02-22T03:51:01;100427.00;;;3.57;80.01
48364;BME280;34170;54.364;18.582;2023-02-22T03:53:33;100418.28;;;3.55;80.48
48364;BME280;34170;54.364;18.582;2023-02-22T03:56:06;100432.31;;;3.57;80.06
48364;BME280;34170;54.364;18.582;2023-02-22T03:58:39;100440.13;;;3.60;79.93
48364;BME280;34170;54.364;18.582;2023-02-22T04:01:11;100429.88;;;3.54;79.85
48364;BME280;34170;54.364;18.582;2023-02-22T04:03:39;100437.28;;;3.63;79.50
48364;BME280;34170;54.364;18.582;2023-02-22T04:06:08;100435.53;;;3.62;79.65
48364;BME280;34170;54.364;18.582;2023-02-22T04:08:36;100440.19;;;3.59;80.04
48364;BME280;34170;54.364;18.582;2023-02-22T04:11:04;100438.69;;;3.55;80.24
48364;BME280;34170;54.364;18.582;2023-02-22T04:13:32;100434.81;;;3.46;80.67
48364;BME280;34170;54.364;18.582;2023-02-22T04:16:00;100444.03;;;3.55;80.79
48364;BME280;34170;54.364;18.582;2023-02-22T04:18:28;100439.28;;;3.46;80.62
48364;BME280;34170;54.364;18.582;2023-02-22T04:20:55;100442.69;;;3.48;80.99
48364;BME280;34170;54.364;18.582;2023-02-22T04:23:43;100442.03;;;3.44;80.97
48364;BME280;34170;54.364;18.582;2023-02-22T04:26:11;100455.41;;;3.42;81.54
48364;BME280;34170;54.364;18.582;2023-02-22T04:28:38;100450.66;;;3.48;81.67
48364;BME280;34170;54.364;18.582;2023-02-22T04:31:10;100454.94;;;3.50;81.45
48364;BME280;34170;54.364;18.582;2023-02-22T04:33:37;100453.59;;;3.57;79.43
48364;BME280;34170;54.364;18.582;2023-02-22T04:36:05;100444.88;;;3.55;80.09
48364;BME280;34170;54.364;18.582;2023-02-22T04:38:34;100457.56;;;3.65;80.31
48364;BME280;34170;54.364;18.582;2023-02-22T04:41:02;100449.69;;;3.63;80.39
48364;BME280;34170;54.364;18.582;2023-02-22T04:43:30;100452.84;;;3.55;80.21
48364;BME280;34170;54.364;18.582;2023-02-22T04:46:19;100464.03;;;3.60;80.20
48364;BME280;34170;54.364;18.582;2023-02-22T04:48:47;100452.56;;;3.60;80.36
48364;BME280;34170;54.364;18.582;2023-02-22T04:51:16;100460.81;;;3.55;80.64
48364;BME280;34170;54.364;18.582;2023-02-22T04:53:58;100461.88;;;3.53;80.64
48364;BME280;34170;54.364;18.582;2023-02-22T04:56:25;100456.56;;;3.53;81.20
48364;BME280;34170;54.364;18.582;2023-02-22T04:58:52;100461.50;;;3.44;80.96
48364;BME280;34170;54.364;18.582;2023-02-22T05:01:20;100459.88;;;3.42;81.43
48364;BME280;34170;54.364;18.582;2023-02-22T05:03:47;100464.22;;;3.14;84.07
48364;BME280;34170;54.364;18.582;2023-02-22T05:06:16;100462.91;;;3.21;84.14
48364;BME280;34170;54.364;18.582;2023-02-22T05:08:43;100467.09;;;3.40;83.37
48364;BME280;34170;54.364;18.582;2023-02-22T05:11:11;100469.78;;;3.40;83.06
48364;BME280;34170;54.364;18.582;2023-02-22T05:13:38;100475.84;;;3.42;83.55
48364;BME280;34170;54.364;18.582;2023-02-22T05:16:06;100465.88;;;3.46;83.73
48364;BME280;34170;54.364;18.582;2023-02-22T05:18:33;100469.94;;;3.51;83.51
48364;BME280;34170;54.364;18.582;2023-02-22T05:21:00;100467.66;;;3.59;82.53
48364;BME280;34170;54.364;18.582;2023-02-22T05:23:28;100460.31;;;3.63;82.15
48364;BME280;34170;54.364;18.582;2023-02-22T05:25:55;100478.28;;;3.59;81.18
48364;BME280;34170;54.364;18.582;2023-02-22T05:28:23;100469.09;;;3.51;82.42
48364;BME280;34170;54.364;18.582;2023-02-22T05:30:50;100467.94;;;3.55;82.99
48364;BME280;34170;54.364;18.582;2023-02-22T05:33:18;100473.53;;;3.65;83.09
48364;BME280;34170;54.364;18.582;2023-02-22T05:35:45;100470.44;;;3.58;82.93
48364;BME280;34170;54.364;18.582;2023-02-22T05:38:13;100479.63;;;3.52;82.89
48364;BME280;34170;54.364;18.582;2023-02-22T05:40:42;100471.28;;;3.58;83.20
48364;BME280;34170;54.364;18.582;2023-02-22T05:43:09;100474.69;;;3.60;81.97
48364;BME280;34170;54.364;18.582;2023-02-22T05:45:37;100476.19;;;3.65;80.81
48364;BME280;34170;54.364;18.582;2023-02-22T05:48:04;100491.59;;;3.74;81.13
48364;BME280;34170;54.364;18.582;2023-02-22T05:50:32;100492.53;;;3.87;80.35
48364;BME280;34170;54.364;18.582;2023-02-22T05:53:00;100480.06;;;3.88;80.92
48364;BME280;34170;54.364;18.582;2023-02-22T05:55:28;100494.50;;;3.98;80.56
48364;BME280;34170;54.364;18.582;2023-02-22T05:57:55;100490.81;;;3.86;80.59
48364;BME280;34170;54.364;18.582;2023-02-22T06:00:26;100497.19;;;3.84;80.92
48364;BME280;34170;54.364;18.582;2023-02-22T06:02:55;100499.84;;;3.69;82.13
48364;BME280;34170;54.364;18.582;2023-02-22T06:05:23;100495.19;;;3.73;82.85
48364;BME280;34170;54.364;18.582;2023-02-22T06:07:51;100505.44;;;3.79;83.11
48364;BME280;34170;54.364;18.582;2023-02-22T06:10:20;100506.00;;;3.84;84.03
48364;BME280;34170;54.364;18.582;2023-02-22T06:12:48;100512.66;;;3.91;82.87
48364;BME280;34170;54.364;18.582;2023-02-22T06:15:17;100517.59;;;3.97;83.85
48364;BME280;34170;54.364;18.582;2023-02-22T06:17:46;100521.28;;;3.95;84.46
48364;BME280;34170;54.364;18.582;2023-02-22T06:20:16;100515.13;;;3.94;84.32
48364;BME280;34170;54.364;18.582;2023-02-22T06:22:46;100522.03;;;3.97;85.13
48364;BME280;34170;54.364;18.582;2023-02-22T06:25:17;100521.00;;;3.99;84.79
48364;BME280;34170;54.364;18.582;2023-02-22T06:27:45;100531.69;;;3.85;85.93
48364;BME280;34170;54.364;18.582;2023-02-22T06:30:14;100536.59;;;3.91;86.01
48364;BME280;34170;54.364;18.582;2023-02-22T06:32:43;100527.59;;;3.94;86.30
48364;BME280;34170;54.364;18.582;2023-02-22T06:35:10;100533.16;;;4.04;85.78
48364;BME280;34170;54.364;18.582;2023-02-22T06:37:38;100533.16;;;4.04;85.66
48364;BME280;34170;54.364;18.582;2023-02-22T06:40:06;100533.25;;;4.02;85.27
48364;BME280;34170;54.364;18.582;2023-02-22T06:42:34;100524.81;;;4.10;85.46
48364;BME280;34170;54.364;18.582;2023-02-22T06:45:02;100552.34;;;4.23;84.82
48364;BME280;34170;54.364;18.582;2023-02-22T06:47:29;100549.13;;;4.18;84.89
48364;BME280;34170;54.364;18.582;2023-02-22T06:49:58;100545.09;;;4.25;85.38
48364;BME280;34170;54.364;18.582;2023-02-22T06:52:26;100553.00;;;4.27;84.94
48364;BME280;34170;54.364;18.582;2023-02-22T06:54:54;100559.53;;;4.35;84.89
48364;BME280;34170;54.364;18.582;2023-02-22T06:57:21;100553.06;;;4.39;84.42
48364;BME280;34170;54.364;18.582;2023-02-22T06:59:49;100567.34;;;4.38;84.54
48364;BME280;34170;54.364;18.582;2023-02-22T07:02:16;100578.28;;;4.34;84.08
48364;BME280;34170;54.364;18.582;2023-02-22T07:04:44;100568.16;;;3.97;86.42
48364;BME280;34170;54.364;18.582;2023-02-22T07:07:11;100572.28;;;4.30;86.51
48364;BME280;34170;54.364;18.582;2023-02-22T07:09:39;100571.56;;;3.99;87.20
48364;BME280;34170;54.364;18.582;2023-02-22T07:12:06;100580.31;;;4.16;87.60
48364;BME280;34170;54.364;18.582;2023-02-22T07:14:34;100586.22;;;3.92;88.60
48364;BME280;34170;54.364;18.582;2023-02-22T07:17:01;100585.16;;;3.95;90.22
48364;BME280;34170;54.364;18.582;2023-02-22T07:19:29;100587.06;;;4.07;90.06
48364;BME280;34170;54.364;18.582;2023-02-22T07:21:56;100576.91;;;3.71;90.72
48364;BME280;34170;54.364;18.582;2023-02-22T07:24:26;100581.53;;;3.38;92.15
48364;BME280;34170;54.364;18.582;2023-02-22T07:26:56;100576.06;;;3.70;90.00
48364;BME280;34170;54.364;18.582;2023-02-22T07:29:24;100587.31;;;3.59;89.42
48364;BME280;34170;54.364;18.582;2023-02-22T07:31:51;100592.97;;;3.84;89.34
48364;BME280;34170;54.364;18.582;2023-02-22T07:34:19;100592.94;;;4.12;87.67
48364;BME280;34170;54.364;18.582;2023-02-22T07:36:46;100584.50;;;3.91;87.14
48364;BME280;34170;54.364;18.582;2023-02-22T07:39:14;100599.22;;;3.68;90.94
48364;BME280;34170;54.364;18.582;2023-02-22T07:41:41;100598.09;;;4.15;89.32
48364;BME280;34170;54.364;18.582;2023-02-22T07:44:21;100605.00;;;4.32;86.79
48364;BME280;34170;54.364;18.582;2023-02-22T07:46:48;100610.75;;;4.53;86.40
48364;BME280;34170;54.364;18.582;2023-02-22T07:49:17;100606.34;;;4.67;84.64
48364;BME280;34170;54.364;18.582;2023-02-22T07:51:44;100603.84;;;4.78;83.87
48364;BME280;34170;54.364;18.582;2023-02-22T07:54:12;100615.72;;;4.87;82.26
48364;BME280;34170;54.364;18.582;2023-02-22T07:56:46;100607.66;;;5.01;80.96
48364;BME280;34170;54.364;18.582;2023-02-22T07:59:15;100606.72;;;4.75;80.32
48364;BME280;34170;54.364;18.582;2023-02-22T08:01:42;100605.06;;;4.87;78.47
48364;BME280;34170;54.364;18.582;2023-02-22T08:04:09;100609.09;;;4.80;75.82
48364;BME280;34170;54.364;18.582;2023-02-22T08:06:37;100613.19;;;4.71;76.44
48364;BME280;34170;54.364;18.582;2023-02-22T08:09:05;100614.03;;;4.99;75.87
48364;BME280;34170;54.364;18.582;2023-02-22T08:11:32;100612.50;;;4.54;77.44
48364;BME280;34170;54.364;18.582;2023-02-22T08:14:00;100604.88;;;4.48;77.46
48364;BME280;34170;54.364;18.582;2023-02-22T08:16:27;100605.03;;;4.59;78.53
48364;BME280;34170;54.364;18.582;2023-02-22T08:18:54;100621.00;;;5.01;75.69
48364;BME280;34170;54.364;18.582;2023-02-22T08:21:22;100617.25;;;5.04;74.64
48364;BME280;34170;54.364;18.582;2023-02-22T08:23:50;100624.16;;;5.21;73.36
48364;BME280;34170;54.364;18.582;2023-02-22T08:26:20;100622.47;;;5.32;71.74
48364;BME280;34170;54.364;18.582;2023-02-22T08:28:48;100619.50;;;5.50;71.64
48364;BME280;34170;54.364;18.582;2023-02-22T08:31:15;100622.38;;;5.60;70.25
48364;BME280;34170;54.364;18.582;2023-02-22T08:33:46;100619.63;;;5.74;70.76
48364;BME280;34170;54.364;18.582;2023-02-22T08:36:14;100619.31;;;3.43;78.55
48364;BME280;34170;54.364;18.582;2023-02-22T08:38:42;100621.50;;;4.52;76.63
48364;BME280;34170;54.364;18.582;2023-02-22T08:41:09;100617.91;;;4.53;73.35
48364;BME280;34170;54.364;18.582;2023-02-22T08:43:37;100615.84;;;4.15;75.96
48364;BME280;34170;54.364;18.582;2023-02-22T08:46:04;100617.09;;;4.09;74.86
48364;BME280;34170;54.364;18.582;2023-02-22T08:48:32;100616.63;;;3.29;80.33
48364;BME280;34170;54.364;18.582;2023-02-22T08:50:59;100615.66;;;4.32;75.75
48364;BME280;34170;54.364;18.582;2023-02-22T08:53:27;100609.41;;;4.05;75.85
48364;BME280;34170;54.364;18.582;2023-02-22T08:55:54;100612.72;;;4.08;76.52
48364;BME280;34170;54.364;18.582;2023-02-22T08:58:21;100614.44;;;3.95;76.82
48364;BME280;34170;54.364;18.582;2023-02-22T09:00:49;100616.59;;;4.46;73.94
48364;BME280;34170;54.364;18.582;2023-02-22T09:03:16;100624.03;;;3.97;72.66
48364;BME280;34170;54.364;18.582;2023-02-22T09:05:44;100628.25;;;3.57;77.74
48364;BME280;34170;54.364;18.582;2023-02-22T09:08:12;100618.06;;;3.35;81.41
48364;BME280;34170;54.364;18.582;2023-02-22T09:10:39;100625.56;;;3.12;79.23
48364;BME280;34170;54.364;18.582;2023-02-22T09:13:07;100637.91;;;3.88;78.34
48364;BME280;34170;54.364;18.582;2023-02-22T09:15:34;100625.19;;;4.36;74.90
48364;BME280;34170;54.364;18.582;2023-02-22T09:18:03;100618.44;;;4.72;71.71
48364;BME280;34170;54.364;18.582;2023-02-22T09:20:31;100617.56;;;4.16;74.49
48364;BME280;34170;54.364;18.582;2023-02-22T09:22:59;100620.22;;;4.30;75.39
48364;BME280;34170;54.364;18.582;2023-02-22T09:25:28;100619.03;;;5.30;71.11
48364;BME280;34170;54.364;18.582;2023-02-22T09:27:56;100626.28;;;5.81;68.30
48364;BME280;34170;54.364;18.582;2023-02-22T09:30:32;100626.50;;;5.38;65.20
48364;BME280;34170;54.364;18.582;2023-02-22T09:33:09;100623.06;;;4.83;66.80
48364;BME280;34170;54.364;18.582;2023-02-22T09:35:41;100622.13;;;4.97;66.23
48364;BME280;34170;54.364;18.582;2023-02-22T09:38:15;100637.44;;;4.81;64.85
48364;BME280;34170;54.364;18.582;2023-02-22T09:40:48;100644.53;;;4.53;65.73
48364;BME280;34170;54.364;18.582;2023-02-22T09:51:18;100630.41;;;3.36;69.66
48364;BME280;34170;54.364;18.582;2023-02-22T09:53:48;100649.91;;;4.24;68.26
48364;BME280;34170;54.364;18.582;2023-02-22T09:56:19;100651.69;;;4.38;64.72
48364;BME280;34170;54.364;18.582;2023-02-22T09:58:58;100642.94;;;4.36;65.67
48364;BME280;34170;54.364;18.582;2023-02-22T10:04:04;100635.25;;;4.73;64.27
48364;BME280;34170;54.364;18.582;2023-02-22T10:06:34;100644.00;;;4.19;64.97
48364;BME280;34170;54.364;18.582;2023-02-22T10:09:03;100641.16;;;4.36;63.97
48364;BME280;34170;54.364;18.582;2023-02-22T10:11:41;100656.75;;;4.28;64.38
48364;BME280;34170;54.364;18.582;2023-02-22T10:14:50;100655.28;;;4.51;64.58
48364;BME280;34170;54.364;18.582;2023-02-22T10:20:46;100650.09;;;3.48;64.93
48364;BME280;34170;54.364;18.582;2023-02-22T10:28:42;100652.53;;;4.53;63.15
48364;BME280;34170;54.364;18.582;2023-02-22T10:31:36;100653.88;;;4.46;63.33
48364;BME280;34170;54.364;18.582;2023-02-22T10:34:13;100670.63;;;4.05;64.21
48364;BME280;34170;54.364;18.582;2023-02-22T10:36:45;100660.41;;;3.82;66.34
48364;BME280;34170;54.364;18.582;2023-02-22T10:39:24;100655.97;;;3.83;65.15
48364;BME280;34170;54.364;18.582;2023-02-22T10:42:00;100663.66;;;4.02;65.80
48364;BME280;34170;54.364;18.582;2023-02-22T10:44:32;100665.66;;;4.27;65.83
48364;BME280;34170;54.364;18.582;2023-02-22T10:47:02;100662.72;;;4.46;68.15
48364;BME280;34170;54.364;18.582;2023-02-22T10:49:35;100665.84;;;4.53;72.82
48364;BME280;34170;54.364;18.582;2023-02-22T10:52:13;100664.84;;;4.68;75.23
48364;BME280;34170;54.364;18.582;2023-02-22T10:54:44;100659.28;;;4.58;77.99
48364;BME280;34170;54.364;18.582;2023-02-22T10:57:12;100658.09;;;4.77;78.13
48364;BME280;34170;54.364;18.582;2023-02-22T10:59:40;100662.09;;;4.70;79.94
48364;BME280;34170;54.364;18.582;2023-02-22T11:04:55;100665.97;;;4.78;80.34
48364;BME280;34170;54.364;18.582;2023-02-22T11:07:29;100669.72;;;4.76;83.97
48364;BME280;34170;54.364;18.582;2023-02-22T11:09:59;100660.84;;;4.75;81.45
48364;BME280;34170;54.364;18.582;2023-02-22T11:17:56;100672.69;;;5.26;78.88
48364;BME280;34170;54.364;18.582;2023-02-22T11:20:26;100666.59;;;5.24;78.23
48364;BME280;34170;54.364;18.582;2023-02-22T11:22:56;100669.13;;;5.12;79.09
48364;BME280;34170;54.364;18.582;2023-02-22T11:25:29;100663.91;;;5.24;77.66
48364;BME280;34170;54.364;18.582;2023-02-22T11:28:12;100677.28;;;5.64;75.27
48364;BME280;34170;54.364;18.582;2023-02-22T11:30:45;100679.91;;;5.24;76.43
48364;BME280;34170;54.364;18.582;2023-02-22T11:36:02;100666.13;;;6.23;70.55
48364;BME280;34170;54.364;18.582;2023-02-22T11:38:38;100682.78;;;6.01;72.17
48364;BME280;34170;54.364;18.582;2023-02-22T11:41:18;100676.63;;;5.73;71.65
48364;BME280;34170;54.364;18.582;2023-02-22T11:43:49;100684.28;;;6.05;71.41
48364;BME280;34170;54.364;18.582;2023-02-22T11:46:24;100675.72;;;6.13;70.70
48364;BME280;34170;54.364;18.582;2023-02-22T11:48:59;100678.00;;;6.68;69.57
48364;BME280;34170;54.364;18.582;2023-02-22T12:00:04;100685.09;;;5.80;70.07
48364;BME280;34170;54.364;18.582;2023-02-22T12:11:25;100690.38;;;6.82;61.86
48364;BME280;34170;54.364;18.582;2023-02-22T12:16:43;100690.34;;;6.58;61.46
48364;BME280;34170;54.364;18.582;2023-02-22T12:19:20;100687.28;;;6.76;60.56
48364;BME280;34170;54.364;18.582;2023-02-22T12:21:59;100680.91;;;6.65;59.62
48364;BME280;34170;54.364;18.582;2023-02-22T12:24:41;100678.72;;;6.83;58.00
48364;BME280;34170;54.364;18.582;2023-02-22T12:27:16;100672.03;;;6.65;57.74
48364;BME280;34170;54.364;18.582;2023-02-22T12:29:51;100678.56;;;6.61;58.55
48364;BME280;34170;54.364;18.582;2023-02-22T12:32:35;100678.19;;;6.28;59.27
48364;BME280;34170;54.364;18.582;2023-02-22T12:35:19;100676.97;;;6.58;60.91
48364;BME280;34170;54.364;18.582;2023-02-22T12:38:12;100679.53;;;6.47;61.83
48364;BME280;34170;54.364;18.582;2023-02-22T12:41:04;100682.78;;;6.39;59.99
48364;BME280;34170;54.364;18.582;2023-02-22T12:43:42;100680.84;;;6.41;60.87
48364;BME280;34170;54.364;18.582;2023-02-22T12:46:25;100686.84;;;6.19;62.96
48364;BME280;34170;54.364;18.582;2023-02-22T12:49:16;100688.88;;;6.16;60.39
48364;BME280;34170;54.364;18.582;2023-02-22T12:54:22;100691.09;;;6.35;59.10
48364;BME280;34170;54.364;18.582;2023-02-22T12:59:31;100681.06;;;6.51;57.67
48364;BME280;34170;54.364;18.582;2023-02-22T13:02:11;100700.47;;;5.89;61.17
48364;BME280;34170;54.364;18.582;2023-02-22T13:04:42;100679.63;;;5.01;65.58
48364;BME280;34170;54.364;18.582;2023-02-22T13:14:43;100677.91;;;5.27;67.38
48364;BME280;34170;54.364;18.582;2023-02-22T13:20:02;100685.03;;;5.54;66.14
48364;BME280;34170;54.364;18.582;2023-02-22T13:22:44;100695.88;;;5.11;66.55
48364;BME280;34170;54.364;18.582;2023-02-22T13:33:23;100691.13;;;4.74;66.79
48364;BME280;34170;54.364;18.582;2023-02-22T13:36:20;100701.06;;;4.44;66.43
48364;BME280;34170;54.364;18.582;2023-02-22T13:42:38;100700.22;;;4.99;64.01
48364;BME280;34170;54.364;18.582;2023-02-22T13:48:17;100702.63;;;4.75;67.77
48364;BME280;34170;54.364;18.582;2023-02-22T13:50:50;100698.66;;;4.10;69.59
48364;BME280;34170;54.364;18.582;2023-02-22T13:53:29;100696.38;;;4.62;68.19
48364;BME280;34170;54.364;18.582;2023-02-22T13:55:59;100683.25;;;4.44;68.63
48364;BME280;34170;54.364;18.582;2023-02-22T13:58:27;100688.09;;;4.37;69.40
48364;BME280;34170;54.364;18.582;2023-02-22T14:00:57;100690.78;;;4.37;69.17
48364;BME280;34170;54.364;18.582;2023-02-22T14:06:06;100691.59;;;3.95;70.31
48364;BME280;34170;54.364;18.582;2023-02-22T14:16:30;100706.53;;;3.97;73.97
48364;BME280;34170;54.364;18.582;2023-02-22T14:19:11;100700.28;;;4.13;74.41
48364;BME280;34170;54.364;18.582;2023-02-22T14:21:58;100706.38;;;4.29;74.45
48364;BME280;34170;54.364;18.582;2023-02-22T14:24:41;100699.91;;;4.19;76.16
48364;BME280;34170;54.364;18.582;2023-02-22T14:27:10;100695.16;;;4.10;77.86
48364;BME280;34170;54.364;18.582;2023-02-22T14:29:49;100694.94;;;4.13;77.49
48364;BME280;34170;54.364;18.582;2023-02-22T14:32:20;100702.09;;;4.27;78.53
48364;BME280;34170;54.364;18.582;2023-02-22T14:34:59;100696.19;;;3.62;81.59
48364;BME280;34170;54.364;18.582;2023-02-22T14:37:35;100695.41;;;3.30;84.17
48364;BME280;34170;54.364;18.582;2023-02-22T14:40:26;100700.88;;;3.43;79.46
48364;BME280;34170;54.364;18.582;2023-02-22T14:43:20;100686.44;;;3.33;78.77
48364;BME280;34170;54.364;18.582;2023-02-22T14:45:52;100692.34;;;3.52;75.36
48364;BME280;34170;54.364;18.582;2023-02-22T14:48:26;100691.88;;;3.46;75.85
48364;BME280;34170;54.364;18.582;2023-02-22T14:50:56;100704.09;;;3.18;78.99
48364;BME280;34170;54.364;18.582;2023-02-22T14:53:46;100699.59;;;3.34;76.90
48364;BME280;34170;54.364;18.582;2023-02-22T14:56:22;100703.53;;;3.73;75.93
48364;BME280;34170;54.364;18.582;2023-02-22T14:58:54;100687.69;;;3.86;74.48
48364;BME280;34170;54.364;18.582;2023-02-22T15:01:30;100697.97;;;3.92;73.96
48364;BME280;34170;54.364;18.582;2023-02-22T15:04:25;100701.34;;;3.66;75.25
48364;BME280;34170;54.364;18.582;2023-02-22T15:06:55;100691.78;;;3.47;76.48